Hartford, KS (66854)

3:59 PM CST on January 31, 2015 (GMT -0600)
T-K Weather Station West Hartford, Kansas | Change Station
CLOSE
Current Station
Personal Weather Station
Location: Hartford, KS
Elevation: 1129 ft
Nearby Weather Stations

Elev 1129 ft 38.28 °N, 96.05 °W | Updated 7 minutes ago

Rain
Rain
37.2 °F
Feels Like 32 °F
N
6.3
Wind Variable Wind from SSE

Today
High -- | Low -- °F
--% Chance of Precip.
Yesterday
High -- | Low -- °F
Precip. -- in
7:29 AM 5:45 PM
Waxing Gibbous, 91% visible
Pressure 30.01 in
Visibility 3.0 miles
Clouds Overcast 700 ft
Windchill 32 °F
Dew Point 37 °F
Humidity 98%
Rainfall 0.40 in
Snow Depth Not available.
UV 0 out of 12
Pollen .10 out of 12
Air Quality Not available.
Flu Activity Not available.
METAR KEMP 312153Z AUTO 16010KT 3SM -RA BR OVC007 03/03 A2998 RMK AO2 CIG 005V010 SLP163 P0005 T00280028

More Conditions Fewer Conditions

Pressure 30.01 in
Visibility 3.0 miles
Clouds Overcast 700 ft
Windchill 32 °F
Dew Point 37 °F
Humidity 98%
Rainfall 0.40 in
Snow Depth Not available.
UV 0 out of 12
Pollen .10 out of 12
Air Quality Not available.
Flu Activity Not available.
METAR KEMP 312153Z AUTO 16010KT 3SM -RA BR OVC007 03/03 A2998 RMK AO2 CIG 005V010 SLP163 P0005 T00280028

More Conditions Fewer Conditions

10-Day Weather Forecast

Almanac

Astronomy

Jan. 31, 2015 Rise Set
Actual Time
Civil Twilight
Nautical Twilight
Astronomical Twilight
Moon
Length of Visible Light
Length of Day
Tomorrow will be .
, % of the Moon is Illuminated

Today's Extremes

State Highs State Lows

Community

WunderPhotos

Upload Photos

1,792,213 photos uploaded!

WunderBlogs® & News

Nearby

Air Quality

  Air Quality AQ Index Pollutant
Not available.

Snow Depth

Station Depth Elevation

Earthquake Activity

City Distance Mag. Time & Date
Minimum magnitude displayed is 2.5.

Coastal Water Temperatures

Place Temperature

Nearby Weather Stations